Van Nuys Airport
KVNY : rendu visible

Aérodrome :











RETROUVEZ-NOUS SUR...

 
LOGIN :

S'inscrire | Disclaimer

   EN    FR    IT 

 









Légende :    VFR   VFR Marginal   IFR   IFR Intensif   IFR Très Intensif
Visi : 
Plafond : 
>= 8 km
>= 3000ft
5 à 8 km
1000 à 3000 ft
1500m à 5 km
500 à 1000 ft
800 à 1500m
200 à 500 ft
< 800m
< 200 ft
Symboles :   Orages  Brouillard  Fortes neiges  Fortes précipitations  Vent > 20 kt






- Altitude de l'aérodrome : 802 ft


KVNY - Van Nuys

DERNIER METAR :
  • 300251Z 16008KT 10SM BKN025 19/13 A2997 RMK AO2 SLP144 T01890133 53010

METARs EXPIRÉS :
  • 300240Z 16010KT 10SM BKN021 19/13 A2997 RMK AO2 T01940133
  • 300151Z 18007KT 10SM CLR 21/14 A2995 RMK AO2 SLP135 T02060139
  • 300051Z 18011KT 10SM CLR 23/14 A2994 RMK AO2 SLP131 T02280144

TAF KVNY
Valide du 30 à 00h jusqu'au 31 à 00h UTC


292342Z 3000/3024 16009KT P6SM SCT030
FM300300 12006KT 6SM HZ BKN012
FM300800 13005KT 5SM -DZ BR OVC020
FM301500 13005KT P6SM -DZ OVC030
FM301800 17010KT P6SM SCT035
FIR KZLA / Amérique du Nord



MET'MAP, la Météo Aéronautique d'un coup d'oeil ! - Copyright ORBIFLY Décembre 2007 - Disclaimer

ORBIFLY MET'MAP TEAM :

Programmation & Développement : Alexandra Zaïnal
Sur une idée originale de : Baudouin d'Aumeries
Assistance à la programmation : Marc-Olivier Méhu
Soutien technique & logistique : Manuel Goepfert

Contact : metmap@orbifly.com




SOURCES & CREDITS :

   NOAA       Earth
Advisory